sensor_id;sensor_type;location;lat;lon;timestamp;pressure;altitude;pressure_sealevel;temperature;humidity
65659;BME280;60181;53.258;6.932;2023-10-31T00:00:55;99535.66;;;15.46;70.06
65659;BME280;60181;53.258;6.932;2023-10-31T00:05:15;99531.37;;;15.46;70.00
65659;BME280;60181;53.258;6.932;2023-10-31T00:09:35;99527.40;;;15.45;70.05
65659;BME280;60181;53.258;6.932;2023-10-31T00:13:55;99523.38;;;15.45;69.94
65659;BME280;60181;53.258;6.932;2023-10-31T00:18:15;99520.31;;;15.44;69.96
65659;BME280;60181;53.258;6.932;2023-10-31T00:22:35;99516.80;;;15.43;69.88
65659;BME280;60181;53.258;6.932;2023-10-31T00:26:55;99512.27;;;15.43;69.94
65659;BME280;60181;53.258;6.932;2023-10-31T00:31:15;99508.12;;;15.42;69.93
65659;BME280;60181;53.258;6.932;2023-10-31T00:35:35;99503.77;;;15.42;69.88
65659;BME280;60181;53.258;6.932;2023-10-31T00:39:55;99500.74;;;15.41;69.79
65659;BME280;60181;53.258;6.932;2023-10-31T00:44:15;99500.56;;;15.41;69.71
65659;BME280;60181;53.258;6.932;2023-10-31T00:48:35;99500.92;;;15.40;69.65
65659;BME280;60181;53.258;6.932;2023-10-31T00:52:55;99501.64;;;15.40;69.74
65659;BME280;60181;53.258;6.932;2023-10-31T00:57:15;99503.05;;;15.40;69.88
65659;BME280;60181;53.258;6.932;2023-10-31T01:01:35;99504.21;;;15.40;69.84
65659;BME280;60181;53.258;6.932;2023-10-31T01:05:55;99505.86;;;15.40;69.96
65659;BME280;60181;53.258;6.932;2023-10-31T01:10:15;99506.28;;;15.39;70.12
65659;BME280;60181;53.258;6.932;2023-10-31T01:14:35;99507.93;;;15.39;70.08
65659;BME280;60181;53.258;6.932;2023-10-31T01:18:55;99508.84;;;15.39;70.08
65659;BME280;60181;53.258;6.932;2023-10-31T01:23:15;99508.95;;;15.38;70.00
65659;BME280;60181;53.258;6.932;2023-10-31T01:27:35;99509.27;;;15.37;69.98
65659;BME280;60181;53.258;6.932;2023-10-31T01:31:55;99510.61;;;15.37;69.94
65659;BME280;60181;53.258;6.932;2023-10-31T01:36:15;99512.98;;;15.37;70.12
65659;BME280;60181;53.258;6.932;2023-10-31T01:40:35;99514.96;;;15.37;70.26
65659;BME280;60181;53.258;6.932;2023-10-31T01:44:55;99517.38;;;15.37;70.20
65659;BME280;60181;53.258;6.932;2023-10-31T01:49:15;99520.23;;;15.38;70.21
65659;BME280;60181;53.258;6.932;2023-10-31T01:53:35;99522.31;;;15.38;70.34
65659;BME280;60181;53.258;6.932;2023-10-31T01:57:55;99524.19;;;15.38;70.53
65659;BME280;60181;53.258;6.932;2023-10-31T02:02:15;99525.11;;;15.37;70.42
65659;BME280;60181;53.258;6.932;2023-10-31T02:06:35;99525.13;;;15.37;70.40
65659;BME280;60181;53.258;6.932;2023-10-31T02:10:55;99524.97;;;15.37;70.48
65659;BME280;60181;53.258;6.932;2023-10-31T02:15:15;99524.22;;;15.37;70.51
65659;BME280;60181;53.258;6.932;2023-10-31T02:19:35;99523.07;;;15.37;70.58
65659;BME280;60181;53.258;6.932;2023-10-31T02:28:15;99520.00;;;15.37;70.99
65659;BME280;60181;53.258;6.932;2023-10-31T02:32:35;99517.61;;;15.37;70.93
65659;BME280;60181;53.258;6.932;2023-10-31T02:36:55;99516.55;;;15.37;71.07
65659;BME280;60181;53.258;6.932;2023-10-31T02:41:15;99517.36;;;15.36;71.20
65659;BME280;60181;53.258;6.932;2023-10-31T02:45:35;99518.05;;;15.36;71.16
65659;BME280;60181;53.258;6.932;2023-10-31T02:49:55;99518.21;;;15.36;71.56
65659;BME280;60181;53.258;6.932;2023-10-31T02:54:15;99518.05;;;15.36;71.39
65659;BME280;60181;53.258;6.932;2023-10-31T02:58:35;99517.70;;;15.35;70.83
65659;BME280;60181;53.258;6.932;2023-10-31T03:02:55;99517.13;;;15.34;70.58
65659;BME280;60181;53.258;6.932;2023-10-31T03:07:15;99517.33;;;15.33;70.79
65659;BME280;60181;53.258;6.932;2023-10-31T03:11:35;99518.73;;;15.33;70.92
65659;BME280;60181;53.258;6.932;2023-10-31T03:15:55;99521.04;;;15.33;70.82
65659;BME280;60181;53.258;6.932;2023-10-31T03:20:15;99521.87;;;15.33;71.18
65659;BME280;60181;53.258;6.932;2023-10-31T03:24:35;99524.33;;;15.33;71.11
65659;BME280;60181;53.258;6.932;2023-10-31T03:28:55;99527.56;;;15.33;71.14
65659;BME280;60181;53.258;6.932;2023-10-31T03:33:15;99530.68;;;15.34;71.28
65659;BME280;60181;53.258;6.932;2023-10-31T03:37:35;99533.95;;;15.34;71.01
65659;BME280;60181;53.258;6.932;2023-10-31T03:41:55;99537.93;;;15.35;71.06
65659;BME280;60181;53.258;6.932;2023-10-31T03:46:15;99540.97;;;15.35;71.04
65659;BME280;60181;53.258;6.932;2023-10-31T03:50:35;99545.59;;;15.35;71.11
65659;BME280;60181;53.258;6.932;2023-10-31T03:54:55;99551.37;;;15.35;71.12
65659;BME280;60181;53.258;6.932;2023-10-31T03:59:15;99557.54;;;15.35;71.13
65659;BME280;60181;53.258;6.932;2023-10-31T04:03:35;99564.06;;;15.36;71.50
65659;BME280;60181;53.258;6.932;2023-10-31T04:07:55;99570.00;;;15.37;71.95
65659;BME280;60181;53.258;6.932;2023-10-31T04:12:15;99576.10;;;15.37;70.90
65659;BME280;60181;53.258;6.932;2023-10-31T04:16:41;99581.95;;;15.38;71.08
65659;BME280;60181;53.258;6.932;2023-10-31T04:20:55;99589.06;;;15.38;71.06
65659;BME280;60181;53.258;6.932;2023-10-31T04:25:15;99595.89;;;15.38;71.17
65659;BME280;60181;53.258;6.932;2023-10-31T04:29:35;99602.90;;;15.39;71.08
65659;BME280;60181;53.258;6.932;2023-10-31T04:33:55;99608.34;;;15.39;71.22
65659;BME280;60181;53.258;6.932;2023-10-31T04:38:15;99613.45;;;15.39;71.13
65659;BME280;60181;53.258;6.932;2023-10-31T04:42:35;99619.07;;;15.39;71.28
65659;BME280;60181;53.258;6.932;2023-10-31T04:46:55;99625.09;;;15.39;71.27
65659;BME280;60181;53.258;6.932;2023-10-31T04:51:15;99631.94;;;15.40;70.98
65659;BME280;60181;53.258;6.932;2023-10-31T04:55:35;99638.30;;;15.39;71.25
65659;BME280;60181;53.258;6.932;2023-10-31T04:59:55;99644.56;;;15.39;71.52
65659;BME280;60181;53.258;6.932;2023-10-31T05:04:15;99651.73;;;15.41;71.46
65659;BME280;60181;53.258;6.932;2023-10-31T05:08:35;99658.40;;;15.41;70.97
65659;BME280;60181;53.258;6.932;2023-10-31T05:12:55;99664.69;;;15.41;70.87
65659;BME280;60181;53.258;6.932;2023-10-31T05:17:15;99670.12;;;15.41;70.58
65659;BME280;60181;53.258;6.932;2023-10-31T05:21:35;99675.83;;;15.40;70.52
65659;BME280;60181;53.258;6.932;2023-10-31T05:25:55;99680.97;;;15.38;70.31
65659;BME280;60181;53.258;6.932;2023-10-31T05:30:15;99686.52;;;15.37;70.24
65659;BME280;60181;53.258;6.932;2023-10-31T05:34:35;99692.28;;;15.35;70.02
65659;BME280;60181;53.258;6.932;2023-10-31T05:38:55;99698.33;;;15.34;69.96
65659;BME280;60181;53.258;6.932;2023-10-31T05:43:15;99703.54;;;15.33;69.77
65659;BME280;60181;53.258;6.932;2023-10-31T05:47:35;99706.35;;;15.32;69.74
65659;BME280;60181;53.258;6.932;2023-10-31T05:51:55;99709.83;;;15.31;69.62
65659;BME280;60181;53.258;6.932;2023-10-31T05:56:15;99713.70;;;15.30;69.50
65659;BME280;60181;53.258;6.932;2023-10-31T06:00:35;99715.94;;;15.28;69.49
65659;BME280;60181;53.258;6.932;2023-10-31T06:04:55;99717.92;;;15.27;69.45
65659;BME280;60181;53.258;6.932;2023-10-31T06:09:15;99723.32;;;15.27;69.33
65659;BME280;60181;53.258;6.932;2023-10-31T06:13:35;99727.28;;;15.26;69.31
65659;BME280;60181;53.258;6.932;2023-10-31T06:17:55;99731.98;;;15.25;69.32
65659;BME280;60181;53.258;6.932;2023-10-31T06:22:15;99735.36;;;15.24;69.33
65659;BME280;60181;53.258;6.932;2023-10-31T06:26:35;99739.17;;;15.24;69.29
65659;BME280;60181;53.258;6.932;2023-10-31T06:30:55;99741.24;;;15.23;69.29
65659;BME280;60181;53.258;6.932;2023-10-31T06:35:15;99744.22;;;15.22;69.22
65659;BME280;60181;53.258;6.932;2023-10-31T06:39:35;99747.02;;;15.22;69.19
65659;BME280;60181;53.258;6.932;2023-10-31T06:43:55;99749.90;;;15.21;69.17
65659;BME280;60181;53.258;6.932;2023-10-31T06:48:15;99752.89;;;15.20;69.16
65659;BME280;60181;53.258;6.932;2023-10-31T06:52:35;99755.44;;;15.20;69.19
65659;BME280;60181;53.258;6.932;2023-10-31T06:56:55;99758.50;;;15.19;69.11
65659;BME280;60181;53.258;6.932;2023-10-31T07:01:15;99761.80;;;15.19;69.12
65659;BME280;60181;53.258;6.932;2023-10-31T07:05:35;99764.94;;;15.19;69.43
65659;BME280;60181;53.258;6.932;2023-10-31T07:09:55;99767.90;;;15.20;69.29
65659;BME280;60181;53.258;6.932;2023-10-31T07:14:15;99771.10;;;15.22;69.34
65659;BME280;60181;53.258;6.932;2023-10-31T07:18:35;99775.23;;;15.23;69.46
65659;BME280;60181;53.258;6.932;2023-10-31T07:22:55;99779.67;;;15.25;69.56
65659;BME280;60181;53.258;6.932;2023-10-31T07:27:15;99782.78;;;15.26;69.54
65659;BME280;60181;53.258;6.932;2023-10-31T07:31:35;99785.57;;;15.28;69.72
65659;BME280;60181;53.258;6.932;2023-10-31T07:35:55;99787.79;;;15.31;70.01
65659;BME280;60181;53.258;6.932;2023-10-31T07:40:15;99789.84;;;15.34;69.87
65659;BME280;60181;53.258;6.932;2023-10-31T07:44:35;99791.04;;;15.35;70.01
65659;BME280;60181;53.258;6.932;2023-10-31T07:48:55;99793.12;;;15.37;70.12
65659;BME280;60181;53.258;6.932;2023-10-31T07:53:15;99795.00;;;15.39;70.64
65659;BME280;60181;53.258;6.932;2023-10-31T07:57:34;99797.26;;;15.42;70.85
65659;BME280;60181;53.258;6.932;2023-10-31T08:01:54;99799.56;;;15.44;71.07
65659;BME280;60181;53.258;6.932;2023-10-31T08:06:14;99801.12;;;15.45;70.97
65659;BME280;60181;53.258;6.932;2023-10-31T08:10:35;99802.19;;;15.45;71.01
65659;BME280;60181;53.258;6.932;2023-10-31T08:14:54;99803.34;;;15.45;71.00
65659;BME280;60181;53.258;6.932;2023-10-31T08:19:14;99804.92;;;15.45;70.99
65659;BME280;60181;53.258;6.932;2023-10-31T08:23:34;99806.43;;;15.45;70.96
65659;BME280;60181;53.258;6.932;2023-10-31T08:27:54;99809.40;;;15.45;70.97
65659;BME280;60181;53.258;6.932;2023-10-31T08:32:14;99811.71;;;15.45;70.88
65659;BME280;60181;53.258;6.932;2023-10-31T08:36:34;99814.59;;;15.45;70.81
65659;BME280;60181;53.258;6.932;2023-10-31T08:40:55;99817.80;;;15.45;70.80
65659;BME280;60181;53.258;6.932;2023-10-31T08:45:14;99821.34;;;15.45;70.82
65659;BME280;60181;53.258;6.932;2023-10-31T08:49:34;99824.88;;;15.46;70.78
65659;BME280;60181;53.258;6.932;2023-10-31T08:53:54;99830.08;;;15.46;70.73
65659;BME280;60181;53.258;6.932;2023-10-31T08:58:14;99834.72;;;15.47;70.75
65659;BME280;60181;53.258;6.932;2023-10-31T09:02:34;99840.37;;;15.48;70.71
65659;BME280;60181;53.258;6.932;2023-10-31T09:06:54;99845.40;;;15.49;70.70
65659;BME280;60181;53.258;6.932;2023-10-31T09:11:14;99850.95;;;15.50;70.66
65659;BME280;60181;53.258;6.932;2023-10-31T09:15:34;99858.70;;;15.51;70.64
65659;BME280;60181;53.258;6.932;2023-10-31T09:19:55;99867.67;;;15.52;70.65
65659;BME280;60181;53.258;6.932;2023-10-31T09:24:14;99878.81;;;15.53;70.80
65659;BME280;60181;53.258;6.932;2023-10-31T09:28:35;99891.67;;;15.53;70.83
65659;BME280;60181;53.258;6.932;2023-10-31T09:32:54;99903.16;;;15.54;70.85
65659;BME280;60181;53.258;6.932;2023-10-31T09:37:14;99915.53;;;15.54;70.86
65659;BME280;60181;53.258;6.932;2023-10-31T09:41:34;99928.09;;;15.55;70.83
65659;BME280;60181;53.258;6.932;2023-10-31T09:45:54;99940.05;;;15.55;70.83
65659;BME280;60181;53.258;6.932;2023-10-31T09:50:14;99953.23;;;15.55;70.80
65659;BME280;60181;53.258;6.932;2023-10-31T09:54:34;99966.71;;;15.56;70.80
65659;BME280;60181;53.258;6.932;2023-10-31T09:58:54;99980.80;;;15.56;70.73
65659;BME280;60181;53.258;6.932;2023-10-31T10:03:14;99994.19;;;15.57;70.74
65659;BME280;60181;53.258;6.932;2023-10-31T10:07:34;100009.09;;;15.58;70.79
65659;BME280;60181;53.258;6.932;2023-10-31T10:11:55;100022.08;;;15.58;70.82
65659;BME280;60181;53.258;6.932;2023-10-31T10:16:27;100032.54;;;15.59;70.69
65659;BME280;60181;53.258;6.932;2023-10-31T10:20:34;100042.29;;;15.60;70.56
65659;BME280;60181;53.258;6.932;2023-10-31T10:24:54;100052.59;;;15.62;70.59
65659;BME280;60181;53.258;6.932;2023-10-31T10:29:15;100062.41;;;15.63;70.53
65659;BME280;60181;53.258;6.932;2023-10-31T10:33:34;100072.48;;;15.64;70.57
65659;BME280;60181;53.258;6.932;2023-10-31T10:37:54;100081.72;;;15.65;70.57
65659;BME280;60181;53.258;6.932;2023-10-31T10:42:15;100088.98;;;15.66;70.52
65659;BME280;60181;53.258;6.932;2023-10-31T10:46:35;100096.08;;;15.67;70.46
65659;BME280;60181;53.258;6.932;2023-10-31T10:50:59;100102.26;;;15.68;70.46
65659;BME280;60181;53.258;6.932;2023-10-31T10:55:20;100108.53;;;15.69;70.49
65659;BME280;60181;53.258;6.932;2023-10-31T10:59:39;100113.89;;;15.71;70.34
65659;BME280;60181;53.258;6.932;2023-10-31T11:03:57;100119.00;;;15.72;70.27
65659;BME280;60181;53.258;6.932;2023-10-31T11:08:14;100126.00;;;15.74;70.19
65659;BME280;60181;53.258;6.932;2023-10-31T11:12:34;100133.20;;;15.77;70.15
65659;BME280;60181;53.258;6.932;2023-10-31T11:16:55;100140.21;;;15.78;70.26
65659;BME280;60181;53.258;6.932;2023-10-31T11:21:14;100146.47;;;15.80;70.25
65659;BME280;60181;53.258;6.932;2023-10-31T11:25:34;100152.98;;;15.81;70.25
65659;BME280;60181;53.258;6.932;2023-10-31T11:29:54;100159.42;;;15.82;70.25
65659;BME280;60181;53.258;6.932;2023-10-31T11:34:17;100167.03;;;15.83;70.31
65659;BME280;60181;53.258;6.932;2023-10-31T11:38:35;100173.71;;;15.83;70.28
65659;BME280;60181;53.258;6.932;2023-10-31T11:42:57;100178.89;;;15.85;70.17
65659;BME280;60181;53.258;6.932;2023-10-31T11:47:15;100183.56;;;15.86;70.12
65659;BME280;60181;53.258;6.932;2023-10-31T11:51:34;100186.69;;;15.87;70.28
65659;BME280;60181;53.258;6.932;2023-10-31T11:55:54;100191.82;;;15.87;70.21
65659;BME280;60181;53.258;6.932;2023-10-31T12:00:20;100195.53;;;15.87;70.29
65659;BME280;60181;53.258;6.932;2023-10-31T12:04:34;100198.35;;;15.87;70.43
65659;BME280;60181;53.258;6.932;2023-10-31T12:08:58;100202.96;;;15.86;70.46
65659;BME280;60181;53.258;6.932;2023-10-31T12:13:14;100207.99;;;15.86;70.53
65659;BME280;60181;53.258;6.932;2023-10-31T12:17:37;100212.63;;;15.85;70.43
65659;BME280;60181;53.258;6.932;2023-10-31T12:21:54;100216.97;;;15.84;70.52
65659;BME280;60181;53.258;6.932;2023-10-31T12:26:14;100222.85;;;15.84;70.48
65659;BME280;60181;53.258;6.932;2023-10-31T12:30:34;100230.77;;;15.84;70.47
65659;BME280;60181;53.258;6.932;2023-10-31T12:34:54;100239.87;;;15.84;70.52
65659;BME280;60181;53.258;6.932;2023-10-31T12:39:15;100249.10;;;15.83;70.55
65659;BME280;60181;53.258;6.932;2023-10-31T12:43:34;100257.54;;;15.83;70.59
65659;BME280;60181;53.258;6.932;2023-10-31T12:48:07;100266.11;;;15.82;70.63
65659;BME280;60181;53.258;6.932;2023-10-31T12:52:14;100274.22;;;15.81;70.62
65659;BME280;60181;53.258;6.932;2023-10-31T12:56:41;100281.05;;;15.81;70.62
65659;BME280;60181;53.258;6.932;2023-10-31T13:00:54;100287.58;;;15.81;70.59
65659;BME280;60181;53.258;6.932;2023-10-31T13:05:15;100293.29;;;15.81;70.63
65659;BME280;60181;53.258;6.932;2023-10-31T13:09:35;100299.06;;;15.81;70.65
65659;BME280;60181;53.258;6.932;2023-10-31T13:13:54;100303.78;;;15.80;70.67
65659;BME280;60181;53.258;6.932;2023-10-31T13:18:14;100310.38;;;15.80;70.66
65659;BME280;60181;53.258;6.932;2023-10-31T13:22:34;100316.41;;;15.80;70.70
65659;BME280;60181;53.258;6.932;2023-10-31T13:26:54;100322.53;;;15.79;70.71
65659;BME280;60181;53.258;6.932;2023-10-31T13:31:14;100330.70;;;15.78;70.76
65659;BME280;60181;53.258;6.932;2023-10-31T13:35:34;100336.55;;;15.78;70.79
65659;BME280;60181;53.258;6.932;2023-10-31T13:39:54;100341.52;;;15.77;70.79
65659;BME280;60181;53.258;6.932;2023-10-31T13:44:14;100346.80;;;15.77;70.82
65659;BME280;60181;53.258;6.932;2023-10-31T13:48:34;100352.42;;;15.76;70.78
65659;BME280;60181;53.258;6.932;2023-10-31T13:52:55;100357.96;;;15.76;70.77
65659;BME280;60181;53.258;6.932;2023-10-31T13:57:14;100362.15;;;15.76;70.78
65659;BME280;60181;53.258;6.932;2023-10-31T14:01:34;100365.78;;;15.76;70.75
65659;BME280;60181;53.258;6.932;2023-10-31T14:05:54;100369.75;;;15.76;70.79
65659;BME280;60181;53.258;6.932;2023-10-31T14:10:14;100374.31;;;15.76;70.76
65659;BME280;60181;53.258;6.932;2023-10-31T14:14:34;100378.52;;;15.82;74.01
65659;BME280;60181;53.258;6.932;2023-10-31T14:18:54;100381.19;;;15.92;73.88
65659;BME280;60181;53.258;6.932;2023-10-31T14:23:14;100382.73;;;16.01;73.68
65659;BME280;60181;53.258;6.932;2023-10-31T14:27:34;100385.96;;;16.10;73.50
65659;BME280;60181;53.258;6.932;2023-10-31T14:31:54;100388.50;;;16.17;73.39
65659;BME280;60181;53.258;6.932;2023-10-31T14:36:14;100391.56;;;16.23;73.27
65659;BME280;60181;53.258;6.932;2023-10-31T14:40:34;100394.68;;;16.28;73.13
65659;BME280;60181;53.258;6.932;2023-10-31T14:44:54;100396.42;;;16.32;73.06
65659;BME280;60181;53.258;6.932;2023-10-31T14:49:14;100398.14;;;16.34;72.96
65659;BME280;60181;53.258;6.932;2023-10-31T14:53:34;100400.21;;;16.36;72.89
65659;BME280;60181;53.258;6.932;2023-10-31T14:57:54;100402.76;;;16.38;72.85
65659;BME280;60181;53.258;6.932;2023-10-31T15:02:14;100405.91;;;16.39;72.82
65659;BME280;60181;53.258;6.932;2023-10-31T15:06:34;100409.53;;;16.39;72.70
65659;BME280;60181;53.258;6.932;2023-10-31T15:10:54;100413.11;;;16.39;72.73
65659;BME280;60181;53.258;6.932;2023-10-31T15:15:17;100415.97;;;16.39;72.71
65659;BME280;60181;53.258;6.932;2023-10-31T15:19:34;100420.37;;;16.37;72.81
65659;BME280;60181;53.258;6.932;2023-10-31T15:23:54;100425.16;;;16.35;72.67
65659;BME280;60181;53.258;6.932;2023-10-31T15:28:14;100429.16;;;16.32;72.79
65659;BME280;60181;53.258;6.932;2023-10-31T15:32:34;100434.20;;;16.28;72.82
65659;BME280;60181;53.258;6.932;2023-10-31T15:36:54;100440.07;;;16.25;72.76
65659;BME280;60181;53.258;6.932;2023-10-31T15:41:14;100446.19;;;16.22;72.75
65659;BME280;60181;53.258;6.932;2023-10-31T15:45:34;100452.14;;;16.19;72.74
65659;BME280;60181;53.258;6.932;2023-10-31T15:49:54;100457.74;;;16.17;72.72
65659;BME280;60181;53.258;6.932;2023-10-31T15:54:14;100463.53;;;16.15;72.65
65659;BME280;60181;53.258;6.932;2023-10-31T15:58:34;100467.52;;;16.13;72.67
65659;BME280;60181;53.258;6.932;2023-10-31T16:02:54;100471.30;;;16.11;72.61
65659;BME280;60181;53.258;6.932;2023-10-31T16:07:14;100474.85;;;16.10;72.54
65659;BME280;60181;53.258;6.932;2023-10-31T16:11:34;100478.89;;;16.09;72.58
65659;BME280;60181;53.258;6.932;2023-10-31T16:15:54;100482.37;;;16.08;72.35
65659;BME280;60181;53.258;6.932;2023-10-31T16:20:14;100486.82;;;16.08;72.24
65659;BME280;60181;53.258;6.932;2023-10-31T16:24:34;100490.97;;;16.07;72.19
65659;BME280;60181;53.258;6.932;2023-10-31T16:28:54;100495.40;;;16.07;72.20
65659;BME280;60181;53.258;6.932;2023-10-31T16:33:14;100500.56;;;16.06;72.14
65659;BME280;60181;53.258;6.932;2023-10-31T16:37:34;100505.66;;;16.05;72.18
65659;BME280;60181;53.258;6.932;2023-10-31T16:41:54;100511.36;;;16.04;72.17
65659;BME280;60181;53.258;6.932;2023-10-31T16:46:14;100517.08;;;16.04;72.11
65659;BME280;60181;53.258;6.932;2023-10-31T16:50:34;100523.08;;;16.03;72.09
65659;BME280;60181;53.258;6.932;2023-10-31T16:54:54;100528.97;;;16.03;72.10
65659;BME280;60181;53.258;6.932;2023-10-31T16:59:14;100534.57;;;16.02;72.05
65659;BME280;60181;53.258;6.932;2023-10-31T17:03:34;100539.20;;;16.02;72.03
65659;BME280;60181;53.258;6.932;2023-10-31T17:07:54;100542.66;;;16.01;72.02
65659;BME280;60181;53.258;6.932;2023-10-31T17:12:14;100544.33;;;16.01;72.02
65659;BME280;60181;53.258;6.932;2023-10-31T17:16:34;100548.05;;;16.00;72.04
65659;BME280;60181;53.258;6.932;2023-10-31T17:20:54;100551.76;;;16.00;71.99
65659;BME280;60181;53.258;6.932;2023-10-31T17:25:14;100556.53;;;15.99;71.95
65659;BME280;60181;53.258;6.932;2023-10-31T17:29:34;100561.74;;;15.99;71.96
65659;BME280;60181;53.258;6.932;2023-10-31T17:33:54;100566.71;;;15.98;71.99
65659;BME280;60181;53.258;6.932;2023-10-31T17:38:14;100571.76;;;15.98;71.95
65659;BME280;60181;53.258;6.932;2023-10-31T17:42:34;100575.89;;;15.98;71.90
65659;BME280;60181;53.258;6.932;2023-10-31T17:46:54;100579.36;;;15.98;71.86
65659;BME280;60181;53.258;6.932;2023-10-31T17:51:14;100583.33;;;15.98;71.84
65659;BME280;60181;53.258;6.932;2023-10-31T17:55:34;100587.11;;;15.99;71.72
65659;BME280;60181;53.258;6.932;2023-10-31T17:59:54;100591.06;;;15.99;71.75
65659;BME280;60181;53.258;6.932;2023-10-31T18:04:14;100593.48;;;15.99;71.73
65659;BME280;60181;53.258;6.932;2023-10-31T18:08:34;100595.37;;;16.00;71.61
65659;BME280;60181;53.258;6.932;2023-10-31T18:12:54;100597.44;;;16.00;71.60
65659;BME280;60181;53.258;6.932;2023-10-31T18:17:14;100600.23;;;16.00;71.66
65659;BME280;60181;53.258;6.932;2023-10-31T18:21:34;100604.13;;;16.00;71.70
65659;BME280;60181;53.258;6.932;2023-10-31T18:25:55;100605.93;;;15.99;71.69
65659;BME280;60181;53.258;6.932;2023-10-31T18:30:14;100607.76;;;15.99;71.73
65659;BME280;60181;53.258;6.932;2023-10-31T18:34:34;100607.45;;;15.98;71.79
65659;BME280;60181;53.258;6.932;2023-10-31T18:38:54;100607.44;;;15.97;71.83
65659;BME280;60181;53.258;6.932;2023-10-31T18:43:14;100607.01;;;15.96;71.82
65659;BME280;60181;53.258;6.932;2023-10-31T18:47:34;100607.90;;;15.95;71.78
65659;BME280;60181;53.258;6.932;2023-10-31T18:51:54;100609.58;;;15.95;71.84
65659;BME280;60181;53.258;6.932;2023-10-31T18:56:14;100610.55;;;15.94;71.83
65659;BME280;60181;53.258;6.932;2023-10-31T19:00:34;100610.24;;;15.94;71.77
65659;BME280;60181;53.258;6.932;2023-10-31T19:04:54;100610.38;;;15.93;71.85
65659;BME280;60181;53.258;6.932;2023-10-31T19:09:14;100611.88;;;15.93;71.81
65659;BME280;60181;53.258;6.932;2023-10-31T19:13:34;100614.34;;;15.92;71.90
65659;BME280;60181;53.258;6.932;2023-10-31T19:17:54;100615.34;;;15.92;71.81
65659;BME280;60181;53.258;6.932;2023-10-31T19:22:14;100615.92;;;15.92;71.83
65659;BME280;60181;53.258;6.932;2023-10-31T19:26:34;100615.59;;;15.92;71.83
65659;BME280;60181;53.258;6.932;2023-10-31T19:30:54;100614.34;;;15.92;72.15
65659;BME280;60181;53.258;6.932;2023-10-31T19:35:14;100612.47;;;15.93;71.91
65659;BME280;60181;53.258;6.932;2023-10-31T19:39:34;100612.38;;;15.93;71.83
65659;BME280;60181;53.258;6.932;2023-10-31T19:43:54;100612.70;;;15.93;71.89
65659;BME280;60181;53.258;6.932;2023-10-31T19:48:14;100613.53;;;15.93;71.91
65659;BME280;60181;53.258;6.932;2023-10-31T19:52:34;100614.11;;;15.93;71.91
65659;BME280;60181;53.258;6.932;2023-10-31T19:56:53;100614.17;;;15.92;71.91
65659;BME280;60181;53.258;6.932;2023-10-31T20:01:14;100614.59;;;15.92;71.93
65659;BME280;60181;53.258;6.932;2023-10-31T20:05:33;100615.42;;;15.92;71.91
65659;BME280;60181;53.258;6.932;2023-10-31T20:09:54;100615.17;;;15.92;71.89
65659;BME280;60181;53.258;6.932;2023-10-31T20:14:13;100614.35;;;15.92;71.87
65659;BME280;60181;53.258;6.932;2023-10-31T20:18:34;100615.67;;;15.92;71.80
65659;BME280;60181;53.258;6.932;2023-10-31T20:22:53;100616.99;;;15.92;71.91
65659;BME280;60181;53.258;6.932;2023-10-31T20:27:14;100618.24;;;15.92;71.99
65659;BME280;60181;53.258;6.932;2023-10-31T20:31:34;100618.49;;;15.91;71.91
65659;BME280;60181;53.258;6.932;2023-10-31T20:35:53;100616.90;;;15.91;71.93
65659;BME280;60181;53.258;6.932;2023-10-31T20:40:13;100615.41;;;15.91;71.92
65659;BME280;60181;53.258;6.932;2023-10-31T20:44:33;100614.42;;;15.91;71.88
65659;BME280;60181;53.258;6.932;2023-10-31T20:48:53;100614.84;;;15.91;71.90
65659;BME280;60181;53.258;6.932;2023-10-31T20:53:13;100614.11;;;15.91;71.91
65659;BME280;60181;53.258;6.932;2023-10-31T20:57:33;100612.38;;;15.90;71.85
65659;BME280;60181;53.258;6.932;2023-10-31T21:01:53;100612.87;;;15.90;71.81
65659;BME280;60181;53.258;6.932;2023-10-31T21:06:13;100611.94;;;15.90;71.93
65659;BME280;60181;53.258;6.932;2023-10-31T21:10:33;100609.46;;;15.90;72.15
65659;BME280;60181;53.258;6.932;2023-10-31T21:14:53;100605.50;;;15.91;71.32
65659;BME280;60181;53.258;6.932;2023-10-31T21:19:13;100601.97;;;15.90;70.49
65659;BME280;60181;53.258;6.932;2023-10-31T21:23:33;100600.86;;;15.89;70.29
65659;BME280;60181;53.258;6.932;2023-10-31T21:27:53;100599.73;;;15.87;69.67
65659;BME280;60181;53.258;6.932;2023-10-31T21:32:13;100600.12;;;15.85;69.59
65659;BME280;60181;53.258;6.932;2023-10-31T21:36:33;100600.08;;;15.83;69.23
65659;BME280;60181;53.258;6.932;2023-10-31T21:40:53;100599.16;;;15.81;69.04
65659;BME280;60181;53.258;6.932;2023-10-31T21:45:13;100597.77;;;15.79;68.75
65659;BME280;60181;53.258;6.932;2023-10-31T21:49:33;100596.17;;;15.78;68.57
65659;BME280;60181;53.258;6.932;2023-10-31T21:53:53;100595.76;;;15.76;68.49
65659;BME280;60181;53.258;6.932;2023-10-31T21:58:13;100596.77;;;15.75;68.35
65659;BME280;60181;53.258;6.932;2023-10-31T22:02:33;100597.89;;;15.73;68.11
65659;BME280;60181;53.258;6.932;2023-10-31T22:06:53;100598.07;;;15.72;68.14
65659;BME280;60181;53.258;6.932;2023-10-31T22:11:13;100599.80;;;15.70;67.97
65659;BME280;60181;53.258;6.932;2023-10-31T22:15:33;100600.05;;;15.69;67.75
65659;BME280;60181;53.258;6.932;2023-10-31T22:19:53;100601.20;;;15.68;67.64
65659;BME280;60181;53.258;6.932;2023-10-31T22:24:13;100601.03;;;15.67;67.53
65659;BME280;60181;53.258;6.932;2023-10-31T22:28:34;100600.67;;;15.65;67.52
65659;BME280;60181;53.258;6.932;2023-10-31T22:32:53;100599.51;;;15.64;67.45
65659;BME280;60181;53.258;6.932;2023-10-31T22:37:13;100598.02;;;15.63;67.45
65659;BME280;60181;53.258;6.932;2023-10-31T22:41:33;100595.31;;;15.63;67.35
65659;BME280;60181;53.258;6.932;2023-10-31T22:45:53;100591.83;;;15.62;67.31
65659;BME280;60181;53.258;6.932;2023-10-31T22:50:13;100588.53;;;15.62;67.26